Time;durP1;ratioP1;P1;durP2;ratioP2;P2;SDS_P1;SDS_P2;PMS_P1;PMS_P2;Temp;Humidity;BMP_temperature;BMP_pressure;BME280_temperature;BME280_humidity;BME280_pressure;Samples;Min_cycle;Max_cycle;Signal;HPM_P1;HPM_P2
2021/06/10 00:00:15;;;;;;;27.60;24.80;;;20.90;74.20;;;;;;5028184;28;20448;-47
2021/06/10 00:02:46;;;;;;;26.00;23.00;;;21.00;74.90;;;;;;5027817;28;20522;-47
2021/06/10 00:05:17;;;;;;;27.27;24.40;;;21.00;74.60;;;;;;5026191;28;20538;-47
2021/06/10 00:07:45;;;;;;;28.17;25.20;;;20.90;74.60;;;;;;5025671;28;21077;-47
2021/06/10 00:10:15;;;;;;;25.90;23.20;;;20.90;74.80;;;;;;5026625;28;20476;-47
2021/06/10 00:12:43;;;;;;;26.73;24.13;;;20.80;75.00;;;;;;5026924;28;20472;-47
2021/06/10 00:15:15;;;;;;;26.53;23.93;;;20.80;75.20;;;;;;5028621;28;20455;-47
2021/06/10 00:17:45;;;;;;;28.67;25.57;;;20.70;75.40;;;;;;5025989;28;20483;-47
2021/06/10 00:20:17;;;;;;;27.53;24.60;;;20.80;75.30;;;;;;5027659;28;20495;-47
2021/06/10 00:22:46;;;;;;;27.03;24.50;;;20.80;75.20;;;;;;5028576;28;21430;-46
2021/06/10 00:25:14;;;;;;;27.33;24.63;;;20.70;75.30;;;;;;5029580;28;20919;-47
2021/06/10 00:27:42;;;;;;;28.80;25.70;;;20.60;75.40;;;;;;5029023;28;20453;-47
2021/06/10 00:30:17;;;;;;;28.90;25.90;;;20.60;75.40;;;;;;5023073;28;20495;-47
2021/06/10 00:32:48;;;;;;;30.20;27.03;;;20.50;75.40;;;;;;5026444;28;20517;-47
2021/06/10 00:35:17;;;;;;;26.87;24.27;;;20.50;75.40;;;;;;5025303;28;20531;-47
2021/06/10 00:37:45;;;;;;;28.03;25.20;;;20.50;75.60;;;;;;5028176;28;20469;-47
2021/06/10 00:40:14;;;;;;;32.27;25.90;;;20.50;75.80;;;;;;5026332;28;20479;-47
2021/06/10 00:42:42;;;;;;;29.17;24.83;;;20.40;76.00;;;;;;5024006;28;20989;-47
2021/06/10 00:45:16;;;;;;;29.40;23.90;;;20.40;76.10;;;;;;5025552;28;20539;-47
2021/06/10 00:47:45;;;;;;;27.60;24.90;;;20.40;76.30;;;;;;5027909;28;20456;-47
2021/06/10 00:50:15;;;;;;;27.33;24.50;;;20.40;76.40;;;;;;5024801;28;20542;-47
2021/06/10 00:52:46;;;;;;;26.77;24.13;;;20.40;76.50;;;;;;5025236;28;20443;-46
2021/06/10 00:55:14;;;;;;;26.80;23.90;;;20.30;76.60;;;;;;5025161;28;20449;-47
2021/06/10 00:57:43;;;;;;;25.43;22.80;;;20.30;76.80;;;;;;5026536;28;20451;-47
2021/06/10 01:00:13;;;;;;;24.70;22.20;;;20.30;77.00;;;;;;5024658;28;20460;-47
2021/06/10 01:02:41;;;;;;;24.50;22.03;;;20.30;77.10;;;;;;5026142;28;20960;-47
2021/06/10 01:05:11;;;;;;;26.33;23.70;;;20.30;77.20;;;;;;5026416;28;20827;-47
2021/06/10 01:08:08;;;;;;;26.10;23.50;;;20.30;77.40;;;;;;5031349;28;20462;-47
2021/06/10 01:10:52;;;;;;;25.60;23.00;;;20.30;77.20;;;;;;5026740;28;20958;-47
2021/06/10 01:14:04;;;;;;;28.00;25.20;;;20.30;76.80;;;;;;5025786;28;20458;-47
2021/06/10 01:16:36;;;;;;;28.40;25.60;;;20.40;76.60;;;;;;5016800;28;20475;-47
2021/06/10 01:19:42;;;;;;;26.70;23.53;;;20.30;76.30;;;;;;5028146;28;20460;-47
2021/06/10 01:22:36;;;;;;;25.50;22.80;;;20.30;76.10;;;;;;5021619;28;20466;-47
2021/06/10 01:25:16;;;;;;;25.87;23.13;;;20.20;76.20;;;;;;5029251;28;20522;-47
2021/06/10 01:27:49;;;;;;;27.70;25.00;;;20.10;76.50;;;;;;5021280;28;20452;-47
2021/06/10 01:30:30;;;;;;;26.13;23.50;;;20.00;76.60;;;;;;5020553;28;20886;-47
2021/06/10 01:33:07;;;;;;;26.10;23.43;;;19.90;76.90;;;;;;5021128;28;20460;-46
2021/06/10 01:35:43;;;;;;;26.23;23.53;;;19.90;77.00;;;;;;5024459;28;20460;-47
2021/06/10 01:38:12;;;;;;;25.53;22.93;;;19.90;77.00;;;;;;5027858;28;20474;-47
2021/06/10 01:40:41;;;;;;;28.30;24.60;;;20.00;77.10;;;;;;5025056;28;20857;-47
2021/06/10 01:43:12;;;;;;;27.23;24.20;;;19.90;77.00;;;;;;5024313;28;21064;-47
2021/06/10 01:45:40;;;;;;;28.93;24.30;;;19.80;77.30;;;;;;5024703;28;20448;-47
2021/06/10 01:48:09;;;;;;;27.57;24.80;;;19.70;77.60;;;;;;5025583;28;20459;-47
2021/06/10 01:50:38;;;;;;;27.77;24.87;;;19.60;77.70;;;;;;5021673;28;20506;-47
2021/06/10 01:53:14;;;;;;;26.63;23.80;;;19.60;78.00;;;;;;5024122;28;20480;-47
2021/06/10 01:55:42;;;;;;;28.20;25.23;;;19.70;78.10;;;;;;5026021;28;20510;-47
2021/06/10 01:58:12;;;;;;;27.73;24.73;;;19.60;77.90;;;;;;5023024;28;20480;-47
2021/06/10 02:00:42;;;;;;;28.00;25.07;;;19.60;77.90;;;;;;5027201;28;20943;-47
2021/06/10 02:03:12;;;;;;;27.03;24.33;;;19.60;77.90;;;;;;5022751;28;20494;-47
2021/06/10 02:05:42;;;;;;;26.00;23.37;;;19.50;78.30;;;;;;5025058;28;20494;-45
2021/06/10 02:08:12;;;;;;;26.83;24.30;;;19.50;78.40;;;;;;5028641;28;20937;-45
2021/06/10 02:10:42;;;;;;;28.63;25.63;;;19.40;78.40;;;;;;5024556;28;20452;-45
2021/06/10 02:13:12;;;;;;;27.30;24.60;;;19.30;78.50;;;;;;5024381;28;20452;-45
2021/06/10 02:15:41;;;;;;;25.57;22.63;;;19.30;78.60;;;;;;5025585;28;20788;-45
2021/06/10 02:18:09;;;;;;;25.93;23.33;;;19.30;78.90;;;;;;5020009;28;20527;-45
2021/06/10 02:20:38;;;;;;;28.50;24.87;;;19.30;78.80;;;;;;5014492;28;20823;-45
2021/06/10 02:23:07;;;;;;;24.67;22.20;;;19.40;78.70;;;;;;5023707;28;20827;-44
2021/06/10 02:25:35;;;;;;;27.43;24.70;;;19.40;78.50;;;;;;5024288;28;20529;-44
2021/06/10 02:28:05;;;;;;;25.67;22.90;;;19.30;78.80;;;;;;5025616;28;20475;-46
2021/06/10 02:30:35;;;;;;;27.60;24.17;;;19.20;79.10;;;;;;5023230;28;20466;-46
2021/06/10 02:33:03;;;;;;;27.10;23.70;;;19.10;79.30;;;;;;5023419;28;20843;-46
2021/06/10 02:35:31;;;;;;;28.70;25.80;;;19.10;79.50;;;;;;5024311;28;20468;-46
2021/06/10 02:38:01;;;;;;;26.93;23.43;;;19.00;79.60;;;;;;5023097;28;20474;-46
2021/06/10 02:40:43;;;;;;;28.57;25.47;;;19.00;79.70;;;;;;5026307;28;20467;-46
2021/06/10 02:43:13;;;;;;;28.13;25.07;;;19.00;79.80;;;;;;5006888;28;20899;-46
2021/06/10 02:45:45;;;;;;;29.80;25.30;;;19.00;79.90;;;;;;5031029;28;20851;-46
2021/06/10 02:48:14;;;;;;;26.63;23.20;;;19.00;80.10;;;;;;5022701;28;20447;-46
2021/06/10 02:50:45;;;;;;;27.70;24.07;;;19.00;80.10;;;;;;5027095;28;20440;-46
2021/06/10 02:53:16;;;;;;;26.60;23.90;;;18.90;80.10;;;;;;5020670;28;22306;-46
2021/06/10 02:55:46;;;;;;;25.03;22.60;;;18.90;80.30;;;;;;5023912;28;20455;-46
2021/06/10 02:58:20;;;;;;;31.33;25.60;;;18.90;80.40;;;;;;5026695;28;20947;-46
2021/06/10 03:00:49;;;;;;;27.73;24.70;;;18.90;80.50;;;;;;5031381;28;20834;-46
2021/06/10 03:03:19;;;;;;;30.20;26.87;;;18.80;80.50;;;;;;5027437;28;21167;-46
2021/06/10 03:05:48;;;;;;;29.40;26.30;;;18.80;80.60;;;;;;5028456;28;20489;-46
2021/06/10 03:08:19;;;;;;;26.80;23.90;;;18.80;80.70;;;;;;5028690;28;20503;-46
2021/06/10 03:10:48;;;;;;;28.20;24.43;;;18.80;80.80;;;;;;5028708;28;20481;-46
2021/06/10 03:13:19;;;;;;;28.40;25.40;;;18.80;80.80;;;;;;5030330;28;20456;-46
2021/06/10 03:15:50;;;;;;;30.57;25.27;;;18.80;80.80;;;;;;5031167;28;20455;-46
2021/06/10 03:18:20;;;;;;;28.80;25.80;;;18.80;80.70;;;;;;5028381;28;20443;-46
2021/06/10 03:20:49;;;;;;;29.83;26.70;;;18.80;80.80;;;;;;5030153;28;20463;-46
2021/06/10 03:23:17;;;;;;;28.63;25.37;;;18.80;80.80;;;;;;5031333;28;20460;-46
2021/06/10 03:25:45;;;;;;;28.03;24.93;;;18.70;80.90;;;;;;5030504;28;20987;-46
2021/06/10 03:28:14;;;;;;;27.83;24.93;;;18.70;81.00;;;;;;5027336;28;21083;-46
2021/06/10 03:30:43;;;;;;;26.20;23.43;;;18.70;81.00;;;;;;5029195;28;20455;-46
2021/06/10 03:33:11;;;;;;;27.37;24.37;;;18.80;80.90;;;;;;5026601;28;20456;-46
2021/06/10 03:35:39;;;;;;;27.77;24.77;;;18.80;80.90;;;;;;5028675;28;20470;-47
2021/06/10 03:38:07;;;;;;;25.67;22.97;;;18.80;81.00;;;;;;5025656;28;20970;-47
2021/06/10 03:40:36;;;;;;;25.10;22.40;;;18.90;81.00;;;;;;5029494;28;20459;-48
2021/06/10 03:43:04;;;;;;;27.60;24.60;;;18.90;81.00;;;;;;5025928;28;20460;-47
2021/06/10 03:45:33;;;;;;;25.90;23.20;;;18.90;81.10;;;;;;5029846;28;21035;-47
2021/06/10 03:48:02;;;;;;;27.87;24.90;;;18.90;81.20;;;;;;5026154;28;20470;-48
2021/06/10 03:50:32;;;;;;;27.57;24.40;;;18.90;81.10;;;;;;5029302;28;20466;-48
2021/06/10 03:53:01;;;;;;;28.57;24.87;;;18.80;81.10;;;;;;5025446;28;20475;-47
2021/06/10 03:55:29;;;;;;;28.07;25.10;;;18.80;81.10;;;;;;5028218;28;20771;-47
2021/06/10 03:57:57;;;;;;;25.63;22.90;;;18.70;81.30;;;;;;5024540;28;21338;-47
2021/06/10 04:00:26;;;;;;;30.03;26.70;;;18.60;81.50;;;;;;5030010;28;20464;-47
2021/06/10 04:02:56;;;;;;;28.87;25.60;;;18.60;81.50;;;;;;5025558;28;20459;-47
2021/06/10 04:05:26;;;;;;;28.13;24.83;;;18.60;81.50;;;;;;5026549;28;20491;-47
2021/06/10 04:07:59;;;;;;;27.60;24.53;;;18.60;81.60;;;;;;5013263;28;20460;-47
2021/06/10 04:10:27;;;;;;;26.87;24.20;;;18.70;81.40;;;;;;5027672;28;20452;-47
2021/06/10 04:12:55;;;;;;;27.90;24.83;;;18.70;81.40;;;;;;5027346;28;20451;-47
2021/06/10 04:15:23;;;;;;;32.07;26.03;;;18.60;81.40;;;;;;5025703;28;20467;-47
2021/06/10 04:17:51;;;;;;;26.43;23.67;;;18.60;81.30;;;;;;5026220;28;20471;-47
2021/06/10 04:20:19;;;;;;;29.37;26.20;;;18.70;81.30;;;;;;5026411;28;20515;-47
2021/06/10 04:22:47;;;;;;;29.70;26.60;;;18.70;81.10;;;;;;5031825;28;20458;-47
2021/06/10 04:25:15;;;;;;;29.57;26.37;;;18.70;81.10;;;;;;5027520;28;21296;-47
2021/06/10 04:27:43;;;;;;;26.37;23.57;;;18.70;81.10;;;;;;5028416;28;20490;-47
2021/06/10 04:30:14;;;;;;;29.93;26.60;;;18.70;81.10;;;;;;5028918;28;20482;-47
2021/06/10 04:32:45;;;;;;;31.20;27.17;;;18.80;80.60;;;;;;5025654;28;20467;-47
2021/06/10 04:35:14;;;;;;;29.47;26.27;;;18.80;79.80;;;;;;5026039;28;20928;-47
2021/06/10 04:37:42;;;;;;;28.43;25.43;;;18.80;79.80;;;;;;5025730;28;20956;-47
2021/06/10 04:40:11;;;;;;;30.60;26.00;;;18.90;80.00;;;;;;5027498;28;20459;-47
2021/06/10 04:42:39;;;;;;;29.50;26.30;;;18.90;80.10;;;;;;5026885;28;20471;-47
2021/06/10 04:45:09;;;;;;;29.00;25.90;;;18.90;80.20;;;;;;5023558;28;20909;-47
2021/06/10 04:47:37;;;;;;;30.33;26.93;;;18.90;80.20;;;;;;5027535;28;20817;-47
2021/06/10 04:50:07;;;;;;;30.83;27.60;;;18.90;80.30;;;;;;5026382;28;20456;-47
2021/06/10 04:52:34;;;;;;;30.07;26.77;;;19.00;80.20;;;;;;5021372;28;20450;-47
2021/06/10 04:55:03;;;;;;;31.80;28.40;;;19.00;80.20;;;;;;5022407;28;20747;-47
2021/06/10 04:57:33;;;;;;;29.60;26.50;;;18.90;80.40;;;;;;5022801;28;20459;-47
2021/06/10 05:00:01;;;;;;;29.17;26.27;;;18.90;80.60;;;;;;5026327;28;20472;-47
2021/06/10 05:02:29;;;;;;;30.43;27.33;;;18.90;80.70;;;;;;5023257;28;20898;-47
2021/06/10 05:04:58;;;;;;;32.23;28.73;;;18.90;80.50;;;;;;5023539;28;20491;-47
2021/06/10 05:07:25;;;;;;;30.10;26.80;;;18.90;80.60;;;;;;5024463;28;20945;-47
2021/06/10 05:09:53;;;;;;;31.77;28.37;;;18.90;80.80;;;;;;5026886;28;20814;-47
2021/06/10 05:12:21;;;;;;;32.40;27.67;;;19.00;80.80;;;;;;5029006;28;22084;-47
2021/06/10 05:14:50;;;;;;;31.13;27.80;;;19.00;80.70;;;;;;5026652;28;21008;-47
2021/06/10 05:17:18;;;;;;;31.90;27.23;;;19.00;80.60;;;;;;5025557;28;20468;-47
2021/06/10 05:19:46;;;;;;;34.90;28.83;;;19.10;80.60;;;;;;5028700;28;20454;-47
2021/06/10 05:22:14;;;;;;;32.27;29.03;;;19.10;80.50;;;;;;5026280;28;20459;-47
2021/06/10 05:24:42;;;;;;;31.30;27.23;;;19.20;80.50;;;;;;5025977;28;20498;-47
2021/06/10 05:27:11;;;;;;;33.70;28.47;;;19.20;80.50;;;;;;5019879;28;20462;-47
2021/06/10 05:29:39;;;;;;;31.80;28.50;;;19.30;80.40;;;;;;5022660;28;20478;-47
2021/06/10 05:32:07;;;;;;;34.10;30.10;;;19.30;80.50;;;;;;5022530;28;20463;-47
2021/06/10 05:34:35;;;;;;;33.33;29.73;;;19.40;80.40;;;;;;5025180;28;20463;-47
2021/06/10 05:37:04;;;;;;;34.57;30.80;;;19.50;80.00;;;;;;5025242;28;20456;-47
2021/06/10 05:39:32;;;;;;;30.93;27.63;;;19.50;79.70;;;;;;5026878;28;20460;-47
2021/06/10 05:42:00;;;;;;;31.10;27.80;;;19.60;79.60;;;;;;5023744;28;20483;-47
2021/06/10 05:44:27;;;;;;;32.13;28.63;;;19.60;79.50;;;;;;5022904;28;20867;-47
2021/06/10 05:46:55;;;;;;;34.60;28.47;;;19.70;79.40;;;;;;5018850;28;20478;-47
2021/06/10 05:49:23;;;;;;;33.70;28.87;;;19.80;79.30;;;;;;5025182;28;20459;-46
2021/06/10 05:51:51;;;;;;;34.70;30.70;;;19.90;79.00;;;;;;5020471;28;20452;-47
2021/06/10 05:54:19;;;;;;;35.10;31.40;;;19.90;78.70;;;;;;5026321;28;20456;-47
2021/06/10 05:56:47;;;;;;;31.17;27.90;;;20.00;78.40;;;;;;5026971;28;20456;-48
2021/06/10 05:59:15;;;;;;;36.97;30.23;;;20.10;78.30;;;;;;5028103;28;20439;-48
2021/06/10 06:01:43;;;;;;;32.00;28.40;;;20.20;78.20;;;;;;5031370;28;20439;-47
2021/06/10 06:04:11;;;;;;;37.33;31.33;;;20.20;78.10;;;;;;5027027;28;20488;-47
2021/06/10 06:06:39;;;;;;;32.57;29.07;;;20.30;77.90;;;;;;5024978;28;20451;-48
2021/06/10 06:09:08;;;;;;;32.03;28.43;;;20.40;77.60;;;;;;5021697;28;20460;-47
2021/06/10 06:11:36;;;;;;;35.43;31.63;;;20.50;77.40;;;;;;5025670;28;20479;-47
2021/06/10 06:14:08;;;;;;;35.20;31.30;;;20.50;77.20;;;;;;5025412;28;20816;-47
2021/06/10 06:16:39;;;;;;;32.17;28.77;;;20.50;77.10;;;;;;5025432;28;20956;-47
2021/06/10 06:19:09;;;;;;;31.43;28.03;;;20.60;76.40;;;;;;5027560;28;20452;-47
2021/06/10 06:21:37;;;;;;;32.63;26.83;;;20.70;76.30;;;;;;5024388;28;20485;-48
2021/06/10 06:24:05;;;;;;;31.17;28.07;;;20.70;76.00;;;;;;5029417;28;20460;-48
2021/06/10 06:26:34;;;;;;;30.53;27.23;;;20.80;76.00;;;;;;5029133;28;20457;-47
2021/06/10 06:29:03;;;;;;;29.70;26.70;;;20.90;75.60;;;;;;5025234;28;20479;-48
2021/06/10 06:31:31;;;;;;;30.50;27.30;;;21.00;74.90;;;;;;5031211;28;20451;-47
2021/06/10 06:33:59;;;;;;;32.83;27.40;;;21.10;73.90;;;;;;5030707;28;20566;-47
2021/06/10 06:36:27;;;;;;;31.30;27.97;;;21.20;74.00;;;;;;5029662;28;20455;-48
2021/06/10 06:38:57;;;;;;;29.70;26.60;;;21.30;74.10;;;;;;5035208;28;20506;-48
2021/06/10 06:41:25;;;;;;;29.70;26.67;;;21.30;73.40;;;;;;5035026;28;20836;-47
2021/06/10 06:43:53;;;;;;;31.47;26.57;;;21.30;73.20;;;;;;5035389;28;21007;-47
2021/06/10 06:46:21;;;;;;;27.40;24.60;;;21.40;72.90;;;;;;5037613;28;20494;-48
2021/06/10 06:48:49;;;;;;;29.30;24.33;;;21.50;73.20;;;;;;5033871;28;20463;-48
2021/06/10 06:51:17;;;;;;;29.47;24.67;;;21.60;73.30;;;;;;5034221;28;20452;-48
2021/06/10 06:53:46;;;;;;;29.63;26.63;;;21.60;72.80;;;;;;5033052;28;20480;-48
2021/06/10 06:56:22;;;;;;;32.07;25.10;;;21.70;72.60;;;;;;5037965;28;20534;-47
2021/06/10 06:58:51;;;;;;;28.23;25.33;;;21.70;72.50;;;;;;5035247;28;20955;-48
2021/06/10 07:01:19;;;;;;;26.63;24.00;;;21.90;72.40;;;;;;5032419;28;20444;-48
2021/06/10 07:03:48;;;;;;;27.23;24.37;;;22.00;72.10;;;;;;5018446;28;20455;-47
2021/06/10 07:06:16;;;;;;;27.40;24.70;;;22.10;71.90;;;;;;5035205;28;20510;-48
2021/06/10 07:08:44;;;;;;;30.20;27.10;;;22.20;71.80;;;;;;5035580;28;20528;-48
2021/06/10 07:11:12;;;;;;;27.50;24.53;;;22.30;70.70;;;;;;5013049;28;20463;-48
2021/06/10 07:13:40;;;;;;;25.70;23.10;;;22.40;70.10;;;;;;5033215;28;20578;-47
2021/06/10 07:16:08;;;;;;;27.00;24.27;;;22.40;70.10;;;;;;5015666;28;21101;-47
2021/06/10 07:18:36;;;;;;;28.93;23.73;;;22.50;69.90;;;;;;5030648;28;20528;-47
2021/06/10 07:21:05;;;;;;;24.03;21.73;;;22.60;70.00;;;;;;5033442;28;20451;-47
2021/06/10 07:23:33;;;;;;;23.30;21.10;;;22.70;69.80;;;;;;5032638;28;20490;-47
2021/06/10 07:26:01;;;;;;;22.83;20.63;;;22.80;69.70;;;;;;5031854;28;20502;-47
2021/06/10 07:28:29;;;;;;;23.80;21.13;;;23.00;69.70;;;;;;5030278;28;20479;-48
2021/06/10 07:30:58;;;;;;;24.43;21.93;;;23.10;69.20;;;;;;5019949;28;20459;-48
2021/06/10 07:33:26;;;;;;;25.07;22.63;;;23.20;68.60;;;;;;5032495;28;20463;-48
2021/06/10 07:35:54;;;;;;;24.90;21.77;;;23.30;68.60;;;;;;5030552;28;20454;-47
2021/06/10 07:38:22;;;;;;;27.60;23.40;;;23.40;68.40;;;;;;5033469;28;20462;-48
2021/06/10 07:40:50;;;;;;;24.07;21.57;;;23.50;68.00;;;;;;5029324;28;20457;-47
2021/06/10 07:43:17;;;;;;;23.03;20.60;;;23.60;67.30;;;;;;5026233;28;20471;-48
2021/06/10 07:45:45;;;;;;;22.80;20.60;;;23.70;67.20;;;;;;5031728;28;20487;-47
2021/06/10 07:48:14;;;;;;;24.63;22.20;;;23.90;66.90;;;;;;5027431;28;20468;-48
2021/06/10 07:50:42;;;;;;;24.43;21.73;;;24.10;66.40;;;;;;5030344;28;20455;-48
2021/06/10 07:53:10;;;;;;;23.07;20.77;;;24.20;66.10;;;;;;5028187;28;20470;-47
2021/06/10 07:55:41;;;;;;;24.10;21.50;;;24.30;65.80;;;;;;5029900;28;20455;-47
2021/06/10 07:58:09;;;;;;;22.57;20.27;;;24.40;65.70;;;;;;5028889;28;20466;-48
2021/06/10 08:00:37;;;;;;;24.07;21.57;;;24.50;65.30;;;;;;5027650;28;21324;-48
2021/06/10 08:03:05;;;;;;;23.53;21.13;;;24.60;65.50;;;;;;5030031;28;20985;-48
2021/06/10 08:05:33;;;;;;;20.43;18.53;;;24.80;64.80;;;;;;5029322;28;20979;-48
2021/06/10 08:08:02;;;;;;;22.07;19.80;;;24.90;64.20;;;;;;5027751;28;20460;-48
2021/06/10 08:10:30;;;;;;;24.43;20.93;;;25.00;64.00;;;;;;5026588;28;20466;-47
2021/06/10 08:12:58;;;;;;;22.30;20.30;;;25.00;63.50;;;;;;5028441;28;20928;-48
2021/06/10 08:15:26;;;;;;;23.07;20.67;;;25.20;63.10;;;;;;5028289;28;20452;-48
2021/06/10 08:17:54;;;;;;;22.67;20.50;;;25.30;63.70;;;;;;5026089;28;20485;-48
2021/06/10 08:20:25;;;;;;;22.77;20.43;;;25.30;63.50;;;;;;5030230;28;20464;-48
2021/06/10 08:22:55;;;;;;;21.83;19.93;;;25.40;63.00;;;;;;5028906;28;20510;-48
2021/06/10 08:25:23;;;;;;;23.90;21.37;;;25.50;62.60;;;;;;5030886;28;20479;-48
2021/06/10 08:27:51;;;;;;;20.77;18.87;;;25.60;62.80;;;;;;5026942;28;20475;-48
2021/06/10 08:30:20;;;;;;;21.00;19.07;;;25.60;62.80;;;;;;5027464;28;20432;-47
2021/06/10 08:32:48;;;;;;;22.17;19.73;;;25.70;62.60;;;;;;5029353;28;20454;-47
2021/06/10 08:35:17;;;;;;;21.10;19.10;;;25.80;62.10;;;;;;5030237;28;20470;-47
2021/06/10 08:37:49;;;;;;;21.70;19.70;;;25.90;61.90;;;;;;5031117;28;20462;-48
2021/06/10 08:40:18;;;;;;;23.17;20.80;;;26.00;62.00;;;;;;5022976;28;20462;-47
2021/06/10 08:42:47;;;;;;;23.73;21.23;;;26.20;61.30;;;;;;5029946;28;20873;-47
2021/06/10 08:45:17;;;;;;;21.10;18.90;;;26.30;61.00;;;;;;5031227;28;20489;-47
2021/06/10 08:47:48;;;;;;;20.93;18.93;;;26.40;60.60;;;;;;5026313;28;20990;-48
2021/06/10 08:50:22;;;;;;;21.97;19.67;;;26.50;60.70;;;;;;5025879;28;20533;-47
2021/06/10 08:52:54;;;;;;;21.43;19.53;;;26.60;60.70;;;;;;5011030;28;20457;-47
2021/06/10 08:55:23;;;;;;;21.43;19.17;;;26.70;61.00;;;;;;5029769;28;20768;-47
2021/06/10 08:57:52;;;;;;;20.50;18.60;;;26.70;60.50;;;;;;5029575;28;20530;-48
2021/06/10 09:00:28;;;;;;;22.27;20.17;;;26.70;59.90;;;;;;5007137;28;20545;-47
2021/06/10 09:02:58;;;;;;;20.40;18.10;;;26.70;59.20;;;;;;5025086;28;20952;-48
2021/06/10 09:05:29;;;;;;;21.97;19.70;;;26.70;59.30;;;;;;5029220;28;20493;-48
2021/06/10 09:08:04;;;;;;;18.37;16.77;;;26.80;59.20;;;;;;5027887;28;20451;-48
2021/06/10 09:10:34;;;;;;;18.23;16.33;;;26.80;59.10;;;;;;5022736;28;20550;-47
2021/06/10 09:13:06;;;;;;;17.80;16.00;;;27.00;58.90;;;;;;5025307;28;20992;-48
2021/06/10 09:15:38;;;;;;;19.90;17.63;;;27.20;58.80;;;;;;5027842;28;20459;-48
2021/06/10 09:18:06;;;;;;;17.90;16.20;;;27.40;57.90;;;;;;5026510;28;20949;-48
2021/06/10 09:20:45;;;;;;;21.23;17.27;;;27.60;56.90;;;;;;5030536;28;20975;-48
2021/06/10 09:23:27;;;;;;;15.90;14.40;;;27.80;56.30;;;;;;5030119;28;20466;-47
2021/06/10 09:26:07;;;;;;;17.97;16.27;;;28.10;56.20;;;;;;5025987;28;20487;-48
2021/06/10 09:28:41;;;;;;;17.63;15.93;;;28.30;54.30;;;;;;5030804;28;20478;-48
2021/06/10 09:31:09;;;;;;;16.83;15.17;;;28.50;53.40;;;;;;5026205;28;20200;-48
2021/06/10 09:33:41;;;;;;;16.63;15.10;;;28.70;53.30;;;;;;5011753;28;20214;-47
2021/06/10 09:36:15;;;;;;;16.77;15.20;;;29.00;52.70;;;;;;5026128;28;20240;-48
2021/06/10 09:39:06;;;;;;;18.40;16.70;;;29.30;50.50;;;;;;5028845;28;20203;-46
2021/06/10 09:41:54;;;;;;;19.70;17.80;;;29.60;49.70;;;;;;5026665;28;20214;-46
2021/06/10 09:44:41;;;;;;;17.57;15.97;;;30.00;49.30;;;;;;5026197;28;20208;-46
2021/06/10 09:47:10;;;;;;;16.95;15.23;;;30.40;48.40;;;;;;5027164;28;20196;-46
2021/06/10 09:49:38;;;;;;;17.23;15.70;;;30.70;47.80;;;;;;5024491;28;20201;-47
2021/06/10 09:52:07;;;;;;;17.15;15.52;;;30.80;47.70;;;;;;5021963;28;20212;-47
2021/06/10 09:54:46;;;;;;;16.17;14.77;;;30.80;47.30;;;;;;5024538;28;20215;-47
2021/06/10 09:57:15;;;;;;;18.20;16.38;;;30.70;47.30;;;;;;5026040;28;20204;-47
2021/06/10 09:59:48;;;;;;;16.17;14.77;;;30.60;47.00;;;;;;5025022;28;20603;-46
2021/06/10 10:02:22;;;;;;;18.73;16.85;;;30.40;47.60;;;;;;5021780;28;20211;-47
2021/06/10 10:05:04;;;;;;;16.83;15.43;;;30.20;48.50;;;;;;5027132;28;20201;-47
2021/06/10 10:07:34;;;;;;;19.10;17.25;;;30.10;49.10;;;;;;5023854;28;20583;-47
2021/06/10 10:10:06;;;;;;;16.67;15.15;;;29.90;49.00;;;;;;5021877;28;20231;-47
2021/06/10 10:12:38;;;;;;;14.43;13.13;;;29.80;49.00;;;;;;5022496;28;20216;-47
2021/06/10 10:15:07;;;;;;;17.67;15.90;;;29.50;49.60;;;;;;5010775;28;20204;-46
2021/06/10 10:17:35;;;;;;;16.98;15.43;;;29.40;50.00;;;;;;5028668;28;20216;-46
2021/06/10 10:20:06;;;;;;;17.43;15.70;;;29.20;49.90;;;;;;5020988;28;20217;-46
2021/06/10 10:22:37;;;;;;;18.10;16.30;;;29.00;50.00;;;;;;5018442;28;20645;-47
2021/06/10 10:25:06;;;;;;;15.40;14.00;;;28.90;48.90;;;;;;5025767;28;20212;-46
2021/06/10 10:27:34;;;;;;;16.00;14.50;;;28.70;48.60;;;;;;5026373;28;20203;-47
2021/06/10 10:30:03;;;;;;;14.90;13.60;;;28.50;48.80;;;;;;5023430;28;20207;-48
2021/06/10 10:32:32;;;;;;;15.90;14.50;;;28.50;49.70;;;;;;5028695;28;20215;-46
2021/06/10 10:35:34;;;;;;;15.73;14.23;;;28.30;49.60;;;;;;5025615;28;20291;-48
2021/06/10 10:38:11;;;;;;;14.77;13.33;;;28.10;50.80;;;;;;4992971;28;20471;-48
2021/06/10 10:40:52;;;;;;;15.13;13.30;;;27.90;49.30;;;;;;5023589;28;20463;-48
2021/06/10 10:43:20;;;;;;;12.50;11.30;;;27.80;49.40;;;;;;5023186;28;20584;-48
2021/06/10 10:46:05;;;;;;;13.67;12.37;;;27.70;50.60;;;;;;5024208;28;20487;-48
2021/06/10 10:48:36;;;;;;;15.30;13.80;;;27.60;50.60;;;;;;5025950;28;20463;-48
2021/06/10 10:51:36;;;;;;;15.97;14.50;;;27.60;50.30;;;;;;5022038;28;20459;-48
2021/06/10 10:54:25;;;;;;;14.20;12.90;;;27.70;49.80;;;;;;5023205;28;20447;-47
2021/06/10 10:56:53;;;;;;;13.53;12.23;;;27.60;50.40;;;;;;5025591;28;20455;-48
2021/06/10 10:59:23;;;;;;;13.20;12.10;;;27.60;51.90;;;;;;5024480;28;20455;-48
2021/06/10 11:02:06;;;;;;;12.40;11.40;;;27.50;51.70;;;;;;5028066;28;20927;-48
2021/06/10 11:04:59;;;;;;;12.70;11.70;;;27.50;51.60;;;;;;5029098;28;20454;-48
2021/06/10 11:07:36;;;;;;;13.13;11.83;;;27.40;52.80;;;;;;5027196;28;20561;-47
2021/06/10 11:10:07;;;;;;;12.57;11.37;;;27.40;52.60;;;;;;5028348;28;20511;-48
2021/06/10 11:12:44;;;;;;;13.03;11.87;;;27.40;52.10;;;;;;5027152;28;20458;-47
2021/06/10 11:15:26;;;;;;;12.80;11.57;;;27.30;53.10;;;;;;5025400;28;20458;-47
2021/06/10 11:18:18;;;;;;;12.30;11.20;;;27.30;52.90;;;;;;5029121;28;20475;-46
2021/06/10 11:20:44;;;;;;;14.20;12.33;;;27.40;52.50;;;;;;5030693;28;20447;-46
2021/06/10 11:23:26;;;;;;;12.30;11.20;;;27.40;53.10;;;;;;5027649;28;20828;-46
2021/06/10 11:25:57;;;;;;;12.63;11.60;;;27.40;53.00;;;;;;5027935;28;20856;-46
2021/06/10 11:28:28;;;;;;;12.40;11.40;;;27.40;52.10;;;;;;5025754;28;20466;-46
2021/06/10 11:31:20;;;;;;;12.10;11.10;;;27.50;52.40;;;;;;5031802;28;20461;-46
2021/06/10 11:33:50;;;;;;;12.33;11.23;;;27.50;53.20;;;;;;5029034;28;20468;-47
2021/06/10 11:36:18;;;;;;;13.47;12.00;;;27.40;52.80;;;;;;5026476;28;20460;-46
2021/06/10 11:38:50;;;;;;;13.47;11.27;;;27.40;53.20;;;;;;5031436;28;20889;-47
2021/06/10 11:41:21;;;;;;;12.23;11.00;;;27.30;53.10;;;;;;5026960;28;20443;-46
2021/06/10 11:44:03;;;;;;;13.03;11.83;;;27.30;53.40;;;;;;5030537;28;20445;-46
2021/06/10 11:46:34;;;;;;;13.50;12.20;;;27.20;50.20;;;;;;5029556;28;20478;-46
2021/06/10 11:49:04;;;;;;;12.23;11.23;;;27.20;51.70;;;;;;5024071;28;20961;-46
2021/06/10 11:51:36;;;;;;;11.87;10.87;;;27.00;50.60;;;;;;5030344;28;20463;-46
2021/06/10 11:54:10;;;;;;;14.33;13.13;;;27.00;50.50;;;;;;5028585;28;20443;-46
2021/06/10 11:56:39;;;;;;;11.90;10.80;;;26.90;51.10;;;;;;5027186;28;20478;-46
2021/06/10 11:59:26;;;;;;;13.40;12.30;;;26.80;51.40;;;;;;5027991;28;20459;-46
2021/06/10 12:02:01;;;;;;;12.40;11.30;;;26.90;50.50;;;;;;5027425;28;20481;-47
2021/06/10 12:04:30;;;;;;;11.87;10.87;;;26.80;50.80;;;;;;5032454;28;20784;-46
2021/06/10 12:07:05;;;;;;;14.27;13.00;;;26.70;51.00;;;;;;5031237;28;20493;-46
2021/06/10 12:09:33;;;;;;;13.83;12.63;;;26.70;51.60;;;;;;5027554;28;20947;-46
2021/06/10 12:12:02;;;;;;;12.27;11.10;;;26.80;52.80;;;;;;5028054;28;20463;-46
2021/06/10 12:14:38;;;;;;;15.13;13.90;;;26.70;52.00;;;;;;5029075;28;20899;-46
2021/06/10 12:17:09;;;;;;;14.60;13.30;;;26.80;52.10;;;;;;5029424;28;20470;-46
2021/06/10 12:19:37;;;;;;;14.27;13.00;;;26.70;52.20;;;;;;5025845;28;20464;-46
2021/06/10 12:22:05;;;;;;;12.30;11.20;;;26.70;51.50;;;;;;5030653;28;20466;-46
2021/06/10 12:24:44;;;;;;;12.40;11.30;;;26.80;55.50;;;;;;5024149;28;20460;-47
2021/06/10 12:27:17;;;;;;;12.70;11.60;;;26.90;53.40;;;;;;5027426;28;20494;-47
2021/06/10 12:29:52;;;;;;;13.57;12.37;;;26.90;52.00;;;;;;5031806;28;20494;-46
2021/06/10 12:32:26;;;;;;;12.77;11.77;;;27.00;51.90;;;;;;5029550;28;20505;-47
2021/06/10 12:34:56;;;;;;;13.63;12.50;;;27.10;52.10;;;;;;5025996;28;20488;-47
2021/06/10 12:37:25;;;;;;;11.97;10.97;;;27.20;52.40;;;;;;5027917;28;20475;-47
2021/06/10 12:39:53;;;;;;;12.20;11.27;;;27.20;51.80;;;;;;5026594;28;20469;-46
2021/06/10 12:42:24;;;;;;;11.23;10.17;;;27.30;50.90;;;;;;5027940;28;20455;-46
2021/06/10 12:44:52;;;;;;;13.37;12.33;;;27.40;50.00;;;;;;5029171;28;20470;-47
2021/06/10 12:47:35;;;;;;;12.77;11.43;;;27.40;51.30;;;;;;5026252;28;20540;-46